KTA weather

Karratha Airport
Karratha, Western Australia, Australia

Public forecast

Using degrees Celsius for public forecast. Weather courtesy of forecast.io.

Closest aviation weather report (METAR) to Karratha Airport

Closest report is Barrow Island Airport, 77.3 nm (143.1 km) W. Retrieved 2019/10/18 07:00 UTC (22 minutes ago):

YBWX 180700Z AUTO 25009KT //// // ////// 31/14 Q1010

Closest aviation forecast (TAF) to Karratha Airport

Closest forecast is Port Hedland International Airport, 106.1 nm (196.5 km) E. Retrieved 2019/10/18 06:36 UTC (46 minutes ago):

TAF YPPD 180508Z 1806/1906 32014KT CAVOK FM181200 25010KT CAVOK FM181800 18005KT CAVOK FM190300 33014KT CAVOK